»·PEaware :: ARG1301 KGEG-KSEA

ARG1301 :: KGEG-KSEA

FLIGHT INFORMATION

Flight Status: Arrived
Operator:
Aerolineas Argentinas
More flights by this operator :: More flights under this callsign
Pilot: Luis S. (63)
Aircraft: BOEING 737-800
(B738)
More flights by this aircraft type
Origin: KGEG Spokane Intl
United States
Destination: KSEA Seattle-Tacoma Intl
United States
More flights between these airports :: More routes between these airports
Route: +TEMPL GLASR1
File this flight plan on PilotEdge
Remarks:
Altitude:
(Current/Filed)
240ft
Speed:
(Current/Filed)
350kts
Departed: 01-Aug-18 07:06 PM
Arrived: 01-Aug-18 07:52 PM
Distance/Time
Traveled:
194nm/0:45
Distance/Time
To Go:
Arrived

Flight Plot

Page will automatically refresh every two minutes.

Flight plan parsing failed; only flown route is shown


Map Options




Map Legend


Flown Route
Filed Route
Departure Airport
Arrival Airport
Navaid (VOR, NDB)
Fix

Horizontal Profiles

Position Reports

Time Latitude Longitude Heading Altitude Ground
Speed
01-Aug-18 18:17 47.624931 -117.534673 5 2384ft 0kts
01-Aug-18 18:18 47.624931 -117.534673 5 2384ft 0kts
01-Aug-18 18:19 47.624931 -117.534673 5 2384ft 0kts
01-Aug-18 18:20 47.624931 -117.534673 5 2384ft 0kts
01-Aug-18 18:21 47.624931 -117.534673 5 2384ft 0kts
01-Aug-18 18:22 47.624931 -117.534673 5 2384ft 0kts
01-Aug-18 18:23 47.624931 -117.534673 5 2384ft 0kts
01-Aug-18 18:24 47.624931 -117.534673 5 2384ft 0kts
01-Aug-18 18:25 47.624931 -117.534673 5 2384ft 0kts
01-Aug-18 18:26 47.624931 -117.534673 5 2384ft 0kts
01-Aug-18 18:27 47.624931 -117.534673 5 2384ft 0kts
01-Aug-18 18:28 47.624931 -117.534673 5 2384ft 0kts
01-Aug-18 18:29 47.624931 -117.534673 5 2384ft 0kts
01-Aug-18 18:30 47.624931 -117.534673 5 2384ft 0kts
01-Aug-18 18:31 47.624931 -117.534673 5 2384ft 0kts
01-Aug-18 18:32 47.624931 -117.534673 5 2384ft 0kts
01-Aug-18 18:33 47.624931 -117.534673 5 2384ft 0kts
01-Aug-18 18:34 47.624931 -117.534673 5 2384ft 0kts
01-Aug-18 18:35 47.624931 -117.534673 5 2384ft 0kts
01-Aug-18 18:36 47.624931 -117.534673 5 2384ft 0kts
01-Aug-18 18:37 47.624931 -117.534673 5 2384ft 0kts
01-Aug-18 18:38 47.624931 -117.534673 5 2384ft 0kts
01-Aug-18 18:39 47.624931 -117.534673 5 2384ft 0kts
01-Aug-18 18:40 47.624931 -117.534673 5 2384ft 0kts
01-Aug-18 18:41 47.624931 -117.534673 5 2384ft 0kts
01-Aug-18 18:42 47.624931 -117.534673 5 2384ft 0kts
01-Aug-18 18:43 47.624931 -117.534673 5 2384ft 0kts
01-Aug-18 18:44 47.624931 -117.534673 5 2384ft 0kts
01-Aug-18 18:45 47.624931 -117.534673 5 2384ft 0kts
01-Aug-18 18:46 47.624931 -117.534673 5 2384ft 0kts
01-Aug-18 18:47 47.624931 -117.534673 5 2384ft 0kts
01-Aug-18 18:48 47.624931 -117.534673 5 2384ft 0kts
01-Aug-18 18:49 47.624931 -117.534673 5 2384ft 0kts
01-Aug-18 18:50 47.624931 -117.534673 5 2384ft 0kts
01-Aug-18 18:51 47.624931 -117.534673 5 2384ft 0kts
01-Aug-18 18:52 47.624931 -117.534673 5 2384ft 0kts
01-Aug-18 18:53 47.624931 -117.534673 5 2384ft 0kts
01-Aug-18 18:54 47.624931 -117.534673 5 2384ft 0kts
01-Aug-18 18:55 47.624931 -117.534673 5 2384ft 0kts
01-Aug-18 18:56 47.624931 -117.534673 5 2384ft 0kts
01-Aug-18 18:57 47.624931 -117.534673 5 2384ft 0kts
01-Aug-18 18:58 47.624931 -117.534673 5 2384ft 0kts
01-Aug-18 18:59 47.624931 -117.534673 5 2384ft 0kts
01-Aug-18 19:00 47.624931 -117.534673 5 2384ft 0kts
01-Aug-18 19:01 47.624931 -117.534673 5 2384ft 0kts
01-Aug-18 19:02 47.624471 -117.534626 113 2384ft 5kts
01-Aug-18 19:03 47.625165 -117.531412 45 2384ft 16kts
01-Aug-18 19:04 47.629646 -117.524686 45 2384ft 29kts
01-Aug-18 19:05 47.632215 -117.520744 65 2384ft 0kts
01-Aug-18 19:06 47.631258 -117.518535 140 2384ft 10kts
01-Aug-18 19:07 47.621654 -117.532527 224 2464ft 147kts
01-Aug-18 19:08 47.588169 -117.585767 226 4885ft 194kts
01-Aug-18 19:09 47.559327 -117.638325 269 7914ft 181kts
01-Aug-18 19:10 47.570093 -117.719890 282 10281ft 225kts
01-Aug-18 19:11 47.592307 -117.812680 307 12703ft 275kts
01-Aug-18 19:12 47.609105 -117.929526 269 14896ft 315kts
01-Aug-18 19:13 47.610993 -118.062710 269 17663ft 332kts
01-Aug-18 19:14 47.614239 -118.200571 269 20371ft 339kts
01-Aug-18 19:15 47.618869 -118.340561 270 22948ft 342kts
01-Aug-18 19:16 47.624999 -118.488207 270 23880ft 373kts
01-Aug-18 19:17 47.637297 -118.642082 276 23853ft 376kts
01-Aug-18 19:18 47.653956 -118.793482 275 23848ft 366kts
01-Aug-18 19:19 47.669897 -118.940576 276 23847ft 358kts
01-Aug-18 19:20 47.685475 -119.085502 277 23851ft 353kts
01-Aug-18 19:21 47.701710 -119.228767 277 23849ft 352kts
01-Aug-18 19:22 47.717856 -119.372352 276 23848ft 353kts
01-Aug-18 19:23 47.732603 -119.516328 274 23847ft 353kts
01-Aug-18 19:24 47.743494 -119.661057 274 23849ft 353kts
01-Aug-18 19:25 47.754688 -119.806787 274 23852ft 356kts
01-Aug-18 19:26 47.765619 -119.949494 274 23862ft 358kts
01-Aug-18 19:27 47.776991 -120.096843 275 23869ft 360kts
01-Aug-18 19:28 47.788485 -120.245391 273 23869ft 363kts
01-Aug-18 19:29 47.799127 -120.395128 274 23869ft 365kts
01-Aug-18 19:30 47.809777 -120.545380 274 23870ft 367kts
01-Aug-18 19:31 47.820568 -120.696857 274 23869ft 368kts
01-Aug-18 19:32 47.830765 -120.843223 274 22406ft 340kts
01-Aug-18 19:33 47.839601 -120.978952 274 20571ft 317kts
01-Aug-18 19:34 47.848060 -121.106191 273 19053ft 306kts
01-Aug-18 19:35 47.856845 -121.230537 273 17548ft 298kts
01-Aug-18 19:36 47.864491 -121.352230 273 16051ft 294kts
01-Aug-18 19:37 47.871953 -121.472854 274 14556ft 292kts
01-Aug-18 19:38 47.879427 -121.592879 274 13065ft 291kts
01-Aug-18 19:39 47.880923 -121.708511 244 12002ft 277kts
01-Aug-18 19:40 47.828152 -121.787112 221 11583ft 267kts
01-Aug-18 19:41 47.769879 -121.861606 222 10182ft 283kts
01-Aug-18 19:42 47.725394 -121.953138 266 8266ft 280kts
01-Aug-18 19:43 47.731291 -122.063184 275 6457ft 255kts
01-Aug-18 19:44 47.738568 -122.158269 275 5953ft 204kts
01-Aug-18 19:45 47.745115 -122.240763 275 6086ft 208kts
01-Aug-18 19:46 47.707756 -122.302388 200 5539ft 229kts
01-Aug-18 19:47 47.648869 -122.311770 180 4283ft 194kts
01-Aug-18 19:48 47.599169 -122.308196 180 3056ft 170kts
01-Aug-18 19:49 47.557051 -122.310366 179 2228ft 147kts
01-Aug-18 19:50 47.517795 -122.310527 180 1496ft 138kts
01-Aug-18 19:51 47.479809 -122.310983 180 794ft 135kts
01-Aug-18 19:52 47.450907 -122.311124 177 442ft 44kts
01-Aug-18 19:53 47.446776 -122.309461 150 442ft 11kts
01-Aug-18 19:54 47.444889 -122.306331 178 442ft 13kts
01-Aug-18 19:55 47.439244 -122.305913 94 442ft 9kts
01-Aug-18 19:56 47.438938 -122.304037 136 442ft 0kts

Navigation Log

Ident Type
Flight plan parsing failed, navigation log unavailable